createdAt,value
2023-03-21T00:00:26.038Z,8.79
2023-03-21T00:01:27.755Z,8.72
2023-03-21T00:02:30.007Z,8.79
2023-03-21T00:03:34.039Z,8.93
2023-03-21T00:04:50.672Z,8.95
2023-03-21T00:05:53.949Z,9.01
2023-03-21T00:06:56.017Z,8.88
2023-03-21T00:07:59.554Z,8.84
2023-03-21T00:09:02.943Z,8.73
2023-03-21T00:10:15.429Z,8.66
2023-03-21T00:11:20.679Z,8.63
2023-03-21T00:12:22.602Z,8.69
2023-03-21T00:13:26.607Z,8.59
2023-03-21T00:14:30.743Z,8.50
2023-03-21T00:15:42.550Z,8.48
2023-03-21T00:16:50.848Z,8.62
2023-03-21T00:18:04.386Z,8.70
2023-03-21T00:19:07.526Z,8.55
2023-03-21T00:20:15.371Z,8.65
2023-03-21T00:21:40.914Z,8.59
2023-03-21T00:22:42.302Z,8.54
2023-03-21T00:23:45.884Z,8.61
2023-03-21T00:24:48.366Z,8.63
2023-03-21T00:25:50.297Z,8.69
2023-03-21T00:26:52.280Z,8.77
2023-03-21T00:28:07.567Z,8.70
2023-03-21T00:29:10.183Z,8.74
2023-03-21T00:30:12.761Z,8.61
2023-03-21T00:31:17.190Z,8.64
2023-03-21T00:32:21.310Z,8.56
2023-03-21T00:33:23.185Z,8.55
2023-03-21T00:34:36.894Z,8.65
2023-03-21T00:36:05.712Z,8.62
2023-03-21T00:37:09.395Z,8.71
2023-03-21T00:38:11.399Z,8.45
2023-03-21T00:39:14.222Z,8.51
2023-03-21T00:40:26.581Z,8.47
2023-03-21T00:41:47.662Z,8.48
2023-03-21T00:42:49.585Z,8.36
2023-03-21T00:43:52.065Z,8.27
2023-03-21T00:44:54.004Z,8.15
2023-03-21T00:46:00.802Z,8.07
2023-03-21T00:47:07.340Z,7.99
2023-03-21T00:48:10.763Z,8.05
2023-03-21T00:49:12.809Z,8.15
2023-03-21T00:50:16.394Z,8.15
2023-03-21T00:51:27.207Z,8.03
2023-03-21T00:52:40.142Z,8.01
2023-03-21T00:53:43.076Z,7.99
2023-03-21T00:54:44.923Z,7.93
2023-03-21T00:55:47.378Z,8.08
2023-03-21T00:56:49.818Z,8.08
2023-03-21T00:58:01.315Z,8.03
2023-03-21T00:59:03.837Z,7.89
2023-03-21T01:00:10.674Z,7.82
2023-03-21T01:01:12.938Z,7.92
2023-03-21T01:02:22.731Z,7.82
2023-03-21T01:03:26.624Z,7.71
2023-03-21T01:04:28.871Z,7.54
2023-03-21T01:05:51.352Z,7.39
2023-03-21T01:06:54.594Z,7.41
2023-03-21T01:07:56.812Z,7.47
2023-03-21T01:08:59.393Z,7.51
2023-03-21T01:10:01.278Z,7.27
2023-03-21T01:11:08.160Z,7.23
2023-03-21T01:12:10.663Z,7.37
2023-03-21T01:13:14.310Z,7.33
2023-03-21T01:14:22.944Z,7.34
2023-03-21T01:15:25.073Z,7.34
2023-03-21T01:16:27.535Z,7.24
2023-03-21T01:17:29.459Z,7.20
2023-03-21T01:18:32.456Z,7.09
2023-03-21T01:19:48.748Z,7.17
2023-03-21T01:20:54.862Z,7.20
2023-03-21T01:21:57.567Z,7.19
2023-03-21T01:22:59.660Z,7.14
2023-03-21T01:24:01.782Z,7.23
2023-03-21T01:25:21.075Z,7.31
2023-03-21T01:26:24.028Z,7.43
2023-03-21T01:27:25.966Z,7.28
2023-03-21T01:28:29.549Z,7.16
2023-03-21T01:29:31.573Z,7.28
2023-03-21T01:30:41.605Z,7.27
2023-03-21T01:31:44.190Z,7.19
2023-03-21T01:32:46.123Z,7.21
2023-03-21T01:33:48.173Z,7.05
2023-03-21T01:34:50.811Z,7.04
2023-03-21T01:36:00.293Z,7.06
2023-03-21T01:37:08.392Z,7.19
2023-03-21T01:38:12.761Z,7.24
2023-03-21T01:39:17.462Z,7.23
2023-03-21T01:40:26.076Z,7.25
2023-03-21T01:41:47.760Z,7.14
2023-03-21T01:42:50.620Z,7.23
2023-03-21T01:43:54.655Z,7.39
2023-03-21T01:45:00.661Z,7.48
2023-03-21T01:46:26.261Z,7.40
2023-03-21T01:47:30.114Z,7.41
2023-03-21T01:48:34.137Z,7.25
2023-03-21T01:49:46.048Z,7.25
2023-03-21T01:50:50.179Z,7.09
2023-03-21T01:52:01.124Z,6.90
2023-03-21T01:53:06.906Z,6.82
2023-03-21T01:54:15.368Z,6.83
2023-03-21T01:55:18.980Z,6.90
2023-03-21T01:56:29.361Z,7.02
2023-03-21T01:57:49.236Z,7.02
2023-03-21T01:59:24.929Z,7.07
2023-03-21T02:00:29.548Z,7.22
2023-03-21T02:01:34.846Z,7.10
2023-03-21T02:02:37.602Z,7.19
2023-03-21T02:03:51.027Z,7.14
2023-03-21T02:04:58.343Z,7.11
2023-03-21T02:06:04.953Z,7.17
2023-03-21T02:07:19.425Z,7.18
2023-03-21T02:08:30.573Z,7.01
2023-03-21T02:09:46.475Z,7.13
2023-03-21T02:10:50.675Z,7.29
2023-03-21T02:11:55.962Z,7.36
2023-03-21T02:13:09.344Z,7.27
2023-03-21T02:14:23.396Z,7.26
2023-03-21T02:15:30.831Z,7.08
2023-03-21T02:17:03.093Z,7.26
2023-03-21T02:18:08.004Z,7.45
2023-03-21T02:19:25.958Z,7.33
2023-03-21T02:20:58.582Z,7.11
2023-03-21T02:22:03.988Z,7.39
2023-03-21T02:23:28.870Z,7.53
2023-03-21T02:25:13.368Z,7.67
2023-03-21T02:26:48.199Z,7.90
2023-03-21T02:28:01.304Z,8.04
2023-03-21T02:29:19.012Z,8.09
2023-03-21T02:30:35.442Z,8.31
2023-03-21T02:31:48.231Z,8.43
2023-03-21T02:33:31.654Z,8.50
2023-03-21T02:34:42.826Z,8.64
2023-03-21T02:36:17.779Z,8.81
2023-03-21T02:37:55.233Z,9.00
2023-03-21T02:39:35.992Z,9.02
2023-03-21T02:40:47.449Z,9.13
2023-03-21T02:41:55.319Z,9.22
2023-03-21T02:43:22.555Z,9.20
2023-03-21T02:44:51.696Z,9.17
2023-03-21T02:45:54.221Z,9.19
2023-03-21T02:47:06.367Z,9.28
2023-03-21T02:48:25.525Z,9.27
2023-03-21T02:49:31.593Z,9.32
2023-03-21T02:50:43.684Z,9.30
2023-03-21T02:51:48.432Z,9.28
2023-03-21T02:52:52.343Z,9.32
2023-03-21T02:54:30.319Z,9.39
2023-03-21T02:55:27.515Z,9.42
2023-03-21T02:56:33.649Z,9.42
2023-03-21T02:57:42.548Z,9.40
2023-03-21T02:58:48.129Z,9.45
2023-03-21T02:59:56.904Z,9.41
2023-03-21T03:01:01.165Z,9.41
2023-03-21T03:02:04.390Z,9.43
2023-03-21T03:03:11.398Z,9.42
2023-03-21T03:04:19.529Z,9.42
2023-03-21T03:05:27.907Z,9.44
2023-03-21T03:06:47.225Z,9.40
2023-03-21T03:07:51.971Z,9.52
2023-03-21T03:09:14.691Z,9.50
2023-03-21T03:10:57.948Z,9.44
2023-03-21T03:12:16.519Z,9.40
2023-03-21T03:13:24.354Z,9.43
2023-03-21T03:14:47.101Z,9.35
2023-03-21T03:16:03.171Z,9.34
2023-03-21T03:17:28.364Z,9.31
2023-03-21T03:19:06.934Z,9.27
2023-03-21T03:20:17.518Z,9.26
2023-03-21T03:21:52.783Z,9.26
2023-03-21T03:23:04.016Z,9.35
2023-03-21T03:24:22.868Z,9.37
2023-03-21T03:25:42.170Z,9.43
2023-03-21T03:26:55.617Z,9.42
2023-03-21T03:28:01.475Z,9.48
2023-03-21T03:29:11.969Z,9.43
2023-03-21T03:30:15.272Z,9.37
2023-03-21T03:31:25.972Z,9.39
2023-03-21T03:32:44.863Z,9.42
2023-03-21T03:33:52.263Z,9.52
2023-03-21T03:34:57.020Z,9.57
2023-03-21T03:36:05.523Z,9.65
2023-03-21T03:37:13.541Z,9.67
2023-03-21T03:38:17.345Z,9.70
2023-03-21T03:39:19.605Z,9.67
2023-03-21T03:40:31.700Z,9.71
2023-03-21T03:42:04.246Z,9.79
2023-03-21T03:43:10.413Z,9.75
2023-03-21T03:44:13.157Z,9.76
2023-03-21T03:45:24.500Z,9.79
2023-03-21T03:46:39.970Z,9.82
2023-03-21T03:47:56.447Z,9.83
2023-03-21T03:49:07.933Z,9.89
2023-03-21T03:50:36.913Z,9.89
2023-03-21T03:51:49.949Z,9.80
2023-03-21T03:52:59.814Z,9.58
2023-03-21T03:54:07.978Z,9.69
2023-03-21T03:55:14.464Z,9.80
2023-03-21T03:56:17.463Z,9.79
2023-03-21T03:57:20.711Z,9.72
2023-03-21T03:58:36.172Z,9.67
2023-03-21T03:59:46.858Z,9.68
2023-03-21T04:00:56.057Z,9.72
2023-03-21T04:01:58.424Z,9.57
2023-03-21T04:03:01.291Z,9.54
2023-03-21T04:04:12.524Z,9.60
2023-03-21T04:05:21.100Z,9.65
2023-03-21T04:06:23.116Z,9.76
2023-03-21T04:07:25.930Z,9.78
2023-03-21T04:08:28.152Z,9.77
2023-03-21T04:09:43.243Z,9.71
2023-03-21T04:10:46.885Z,9.62
2023-03-21T04:11:49.733Z,9.60
2023-03-21T04:12:52.010Z,9.60
2023-03-21T04:13:54.848Z,9.57
2023-03-21T04:15:04.910Z,9.49
2023-03-21T04:16:13.107Z,9.57
2023-03-21T04:17:16.260Z,9.51
2023-03-21T04:18:18.766Z,9.40
2023-03-21T04:19:20.959Z,9.47
2023-03-21T04:20:35.584Z,9.34
2023-03-21T04:21:39.567Z,9.32
2023-03-21T04:22:41.983Z,9.28
2023-03-21T04:23:44.199Z,9.25
2023-03-21T04:24:46.148Z,9.28
2023-03-21T04:25:56.423Z,9.23
2023-03-21T04:27:01.338Z,9.16
2023-03-21T04:28:04.191Z,9.05
2023-03-21T04:29:07.758Z,8.93
2023-03-21T04:30:12.234Z,8.85
2023-03-21T04:31:24.941Z,8.81
2023-03-21T04:32:28.391Z,8.72
2023-03-21T04:33:30.741Z,8.75
2023-03-21T04:34:33.101Z,8.62
2023-03-21T04:35:37.637Z,8.78
2023-03-21T04:36:44.567Z,8.85
2023-03-21T04:37:46.705Z,8.86
2023-03-21T04:38:49.126Z,8.80
2023-03-21T04:39:51.738Z,8.72
2023-03-21T04:40:53.710Z,8.65
2023-03-21T04:41:57.034Z,8.65
2023-03-21T04:43:01.272Z,8.67
2023-03-21T04:44:03.532Z,8.63
2023-03-21T04:45:06.923Z,8.60
2023-03-21T04:46:08.801Z,8.64
2023-03-21T04:47:11.144Z,8.73
2023-03-21T04:48:14.532Z,8.61
2023-03-21T04:49:16.608Z,8.62
2023-03-21T04:50:19.094Z,8.64
2023-03-21T04:51:21.020Z,8.76
2023-03-21T04:52:25.244Z,8.85
2023-03-21T04:53:27.417Z,8.74
2023-03-21T04:54:29.383Z,8.80
2023-03-21T04:55:33.156Z,8.86
2023-03-21T04:56:36.353Z,8.77
2023-03-21T04:57:38.787Z,9.12
2023-03-21T04:58:41.838Z,8.93
2023-03-21T04:59:43.832Z,8.82
2023-03-21T05:00:48.005Z,8.80
2023-03-21T05:01:50.359Z,8.90
2023-03-21T05:02:52.259Z,8.94
2023-03-21T05:03:54.108Z,9.04
2023-03-21T05:04:57.473Z,9.29
2023-03-21T05:06:00.120Z,9.08
2023-03-21T05:07:02.041Z,8.99
2023-03-21T05:08:06.265Z,8.87
2023-03-21T05:09:08.855Z,8.83
2023-03-21T05:10:12.435Z,8.86
2023-03-21T05:11:14.949Z,9.02
2023-03-21T05:12:18.546Z,9.08
2023-03-21T05:13:20.849Z,9.04
2023-03-21T05:14:26.482Z,9.09
2023-03-21T05:15:28.560Z,9.00
2023-03-21T05:16:31.265Z,9.09
2023-03-21T05:17:33.678Z,9.18
2023-03-21T05:18:38.743Z,9.04
2023-03-21T05:19:42.651Z,9.09
2023-03-21T05:20:47.151Z,9.04
2023-03-21T05:21:50.468Z,9.18
2023-03-21T05:22:52.856Z,9.33
2023-03-21T05:23:55.283Z,9.53
2023-03-21T05:24:57.802Z,9.53
2023-03-21T05:26:00.627Z,9.53
2023-03-21T05:27:06.603Z,9.65
2023-03-21T05:28:12.446Z,9.50
2023-03-21T05:29:19.475Z,9.46
2023-03-21T05:30:25.311Z,9.54
2023-03-21T05:31:31.762Z,9.58
2023-03-21T05:32:34.978Z,9.62
2023-03-21T05:33:36.873Z,9.57
2023-03-21T05:34:38.783Z,9.64
2023-03-21T05:35:41.024Z,9.73
2023-03-21T05:36:43.663Z,9.96
2023-03-21T05:37:46.434Z,10.22
2023-03-21T05:38:51.375Z,10.47
2023-03-21T05:39:53.586Z,10.68
2023-03-21T05:40:56.292Z,10.63
2023-03-21T05:41:59.424Z,10.75
2023-03-21T05:43:01.900Z,10.82
2023-03-21T05:44:03.822Z,10.88
2023-03-21T05:45:06.548Z,10.91
2023-03-21T05:46:09.442Z,10.95
2023-03-21T05:47:15.863Z,10.87
2023-03-21T05:48:18.852Z,10.92
2023-03-21T05:49:24.541Z,11.08
2023-03-21T05:50:28.263Z,11.24
2023-03-21T05:51:30.874Z,11.20
2023-03-21T05:52:33.026Z,11.30
2023-03-21T05:53:36.270Z,11.46
2023-03-21T05:54:38.187Z,11.76
2023-03-21T05:55:40.439Z,11.93
2023-03-21T05:56:43.423Z,12.14
2023-03-21T05:57:46.300Z,12.46
2023-03-21T05:58:48.680Z,12.89
2023-03-21T05:59:51.064Z,12.91
2023-03-21T06:00:53.530Z,13.00
2023-03-21T06:01:57.088Z,13.29
2023-03-21T06:02:59.124Z,13.39
2023-03-21T06:04:01.623Z,13.50
2023-03-21T06:05:04.290Z,13.56
2023-03-21T06:06:06.909Z,13.83
2023-03-21T06:07:09.611Z,13.95
2023-03-21T06:08:13.821Z,14.16
2023-03-21T06:09:16.108Z,14.26
2023-03-21T06:10:19.906Z,14.42
2023-03-21T06:11:28.912Z,14.57
2023-03-21T06:12:31.990Z,14.76
2023-03-21T06:13:34.531Z,14.93
2023-03-21T06:14:36.695Z,15.13
2023-03-21T06:15:40.372Z,15.40
2023-03-21T06:16:44.354Z,15.93
2023-03-21T06:17:46.680Z,16.11
2023-03-21T06:18:48.741Z,15.91
2023-03-21T06:19:51.994Z,15.93
2023-03-21T06:20:54.786Z,16.02
2023-03-21T06:21:56.868Z,15.95
2023-03-21T06:22:59.315Z,16.19
2023-03-21T06:24:01.213Z,16.00
2023-03-21T06:25:04.832Z,16.08
2023-03-21T06:26:07.733Z,16.07
2023-03-21T06:27:10.497Z,16.21
2023-03-21T06:28:13.736Z,16.35
2023-03-21T06:29:16.033Z,16.35
2023-03-21T06:30:21.330Z,16.58
2023-03-21T06:31:25.226Z,16.71
2023-03-21T06:32:28.230Z,16.65
2023-03-21T06:33:31.130Z,16.42
2023-03-21T06:34:33.296Z,16.51
2023-03-21T06:35:36.046Z,16.60
2023-03-21T06:36:38.677Z,16.51
2023-03-21T06:37:40.730Z,16.20
2023-03-21T06:38:44.557Z,16.26
2023-03-21T06:39:47.069Z,16.29
2023-03-21T06:40:49.720Z,16.33
2023-03-21T06:41:51.839Z,16.23
2023-03-21T06:42:53.807Z,16.40
2023-03-21T06:43:55.961Z,16.40
2023-03-21T06:44:58.418Z,16.45
2023-03-21T06:46:01.355Z,16.67
2023-03-21T06:47:03.486Z,16.84
2023-03-21T06:48:08.719Z,16.60
2023-03-21T06:49:15.853Z,16.34
2023-03-21T06:50:17.955Z,16.35
2023-03-21T06:51:19.929Z,16.42
2023-03-21T06:52:24.550Z,16.64
2023-03-21T06:53:28.265Z,16.78
2023-03-21T06:54:32.310Z,16.82
2023-03-21T06:55:34.549Z,16.85
2023-03-21T06:56:36.611Z,17.07
2023-03-21T06:57:38.690Z,16.90
2023-03-21T06:58:41.785Z,17.15
2023-03-21T06:59:44.396Z,17.32
2023-03-21T07:00:46.719Z,17.25
2023-03-21T07:01:48.887Z,16.99
2023-03-21T07:02:51.398Z,17.15
2023-03-21T07:03:56.677Z,17.13
2023-03-21T07:04:59.210Z,17.44
2023-03-21T07:06:13.633Z,17.58
2023-03-21T07:07:16.130Z,17.79
2023-03-21T07:08:18.625Z,17.40
2023-03-21T07:09:24.559Z,17.29
2023-03-21T07:10:27.080Z,17.39
2023-03-21T07:11:29.361Z,17.46
2023-03-21T07:12:34.164Z,17.57
2023-03-21T07:13:37.223Z,17.81
2023-03-21T07:14:39.237Z,17.97
2023-03-21T07:15:41.489Z,17.66
2023-03-21T07:16:43.430Z,18.03
2023-03-21T07:17:45.410Z,18.31
2023-03-21T07:18:47.554Z,18.40
2023-03-21T07:19:49.787Z,18.14
2023-03-21T07:20:52.844Z,18.32
2023-03-21T07:21:54.822Z,18.42
2023-03-21T07:22:57.533Z,18.56
2023-03-21T07:24:01.493Z,18.45
2023-03-21T07:25:05.438Z,18.43
2023-03-21T07:26:08.824Z,18.50
2023-03-21T07:27:10.659Z,18.54
2023-03-21T07:28:12.551Z,18.09
2023-03-21T07:29:15.409Z,18.10
2023-03-21T07:30:17.548Z,18.09
2023-03-21T07:31:19.893Z,17.98
2023-03-21T07:32:23.396Z,17.78
2023-03-21T07:33:26.080Z,17.66
2023-03-21T07:34:33.090Z,17.57
2023-03-21T07:35:38.197Z,17.32
2023-03-21T07:36:41.214Z,17.46
2023-03-21T07:37:43.641Z,17.36
2023-03-21T07:38:49.494Z,17.46
2023-03-21T07:39:53.939Z,17.74
2023-03-21T07:41:00.768Z,17.89
2023-03-21T07:42:04.510Z,17.97
2023-03-21T07:43:06.516Z,17.95
2023-03-21T07:44:08.577Z,17.88
2023-03-21T07:45:14.535Z,17.82
2023-03-21T07:46:16.589Z,17.70
2023-03-21T07:47:18.802Z,17.73
2023-03-21T07:48:22.773Z,17.83
2023-03-21T07:49:24.744Z,18.25
2023-03-21T07:50:26.687Z,18.57
2023-03-21T07:51:28.673Z,18.68
2023-03-21T07:52:31.328Z,18.80
2023-03-21T07:53:33.252Z,18.93
2023-03-21T07:54:35.365Z,19.14
2023-03-21T07:55:37.588Z,19.28
2023-03-21T07:56:39.612Z,19.42
2023-03-21T07:57:41.830Z,19.35
2023-03-21T07:58:43.890Z,19.03
2023-03-21T07:59:46.202Z,18.77
2023-03-21T08:00:49.107Z,19.07
2023-03-21T08:01:51.798Z,18.79
2023-03-21T08:02:58.563Z,19.08
2023-03-21T08:04:00.786Z,19.49
2023-03-21T08:05:04.121Z,19.02
2023-03-21T08:06:06.396Z,19.51
2023-03-21T08:07:09.102Z,19.62
2023-03-21T08:08:11.279Z,19.29
2023-03-21T08:09:13.188Z,19.58
2023-03-21T08:10:15.779Z,19.63
2023-03-21T08:11:18.126Z,19.67
2023-03-21T08:12:20.334Z,19.77
2023-03-21T08:13:23.016Z,19.85
2023-03-21T08:14:24.906Z,19.97
2023-03-21T08:15:26.824Z,20.05
2023-03-21T08:16:30.103Z,20.35
2023-03-21T08:17:32.356Z,20.27
2023-03-21T08:18:34.214Z,20.31
2023-03-21T08:19:37.447Z,20.50
2023-03-21T08:20:39.789Z,20.65
2023-03-21T08:21:41.714Z,20.91
2023-03-21T08:22:44.381Z,21.14
2023-03-21T08:23:46.191Z,21.22
2023-03-21T08:24:48.051Z,21.00
2023-03-21T08:25:54.471Z,21.27
2023-03-21T08:26:56.656Z,21.45
2023-03-21T08:27:58.828Z,21.35
2023-03-21T08:29:00.922Z,21.45
2023-03-21T08:30:03.554Z,21.44
2023-03-21T08:31:10.349Z,21.29
2023-03-21T08:32:12.277Z,21.26
2023-03-21T08:33:14.894Z,21.41
2023-03-21T08:34:18.179Z,21.13
2023-03-21T08:35:20.540Z,21.27
2023-03-21T08:36:23.554Z,21.08
2023-03-21T08:37:25.679Z,21.11
2023-03-21T08:38:33.510Z,20.95
2023-03-21T08:39:35.437Z,20.88
2023-03-21T08:40:37.332Z,21.13
2023-03-21T08:41:39.192Z,21.15
2023-03-21T08:42:42.107Z,21.35
2023-03-21T08:43:44.298Z,21.04
2023-03-21T08:44:46.211Z,21.32
2023-03-21T08:45:48.112Z,21.62
2023-03-21T08:46:50.122Z,21.75
2023-03-21T08:47:52.002Z,21.59
2023-03-21T08:48:54.801Z,21.11
2023-03-21T08:49:59.158Z,21.19
2023-03-21T08:51:01.396Z,21.58
2023-03-21T08:52:03.533Z,21.65
2023-03-21T08:53:05.573Z,21.97
2023-03-21T08:54:07.934Z,22.04
2023-03-21T08:55:10.571Z,22.10
2023-03-21T08:56:12.780Z,22.13
2023-03-21T08:57:15.033Z,22.23
2023-03-21T08:58:17.926Z,21.94
2023-03-21T08:59:20.381Z,21.93
2023-03-21T09:00:22.997Z,22.09
2023-03-21T09:01:24.879Z,22.06
2023-03-21T09:02:27.139Z,21.95
2023-03-21T09:03:30.377Z,21.51
2023-03-21T09:04:32.756Z,21.62
2023-03-21T09:05:36.690Z,21.59
2023-03-21T09:06:45.636Z,21.52
2023-03-21T09:07:49.631Z,21.81
2023-03-21T09:08:53.565Z,21.96
2023-03-21T09:10:14.792Z,22.17
2023-03-21T09:11:17.711Z,22.15
2023-03-21T09:12:19.808Z,21.87
2023-03-21T09:13:22.829Z,21.76
2023-03-21T09:14:28.793Z,22.13
2023-03-21T09:15:31.839Z,21.86
2023-03-21T09:16:34.631Z,21.87
2023-03-21T09:17:39.032Z,21.93
2023-03-21T09:18:55.545Z,21.66
2023-03-21T09:19:59.511Z,21.76
2023-03-21T09:21:02.083Z,21.68
2023-03-21T09:22:04.760Z,21.62
2023-03-21T09:23:06.921Z,21.60
2023-03-21T09:24:08.907Z,21.86
2023-03-21T09:25:11.383Z,22.08
2023-03-21T09:26:14.147Z,21.85
2023-03-21T09:27:18.144Z,21.84
2023-03-21T09:28:20.021Z,22.25
2023-03-21T09:29:23.260Z,22.21
2023-03-21T09:30:26.443Z,22.39
2023-03-21T09:31:28.962Z,22.39
2023-03-21T09:32:31.310Z,22.26
2023-03-21T09:33:33.274Z,22.29
2023-03-21T09:34:37.032Z,21.92
2023-03-21T09:35:39.173Z,21.74
2023-03-21T09:36:44.230Z,21.73
2023-03-21T09:37:47.845Z,21.15
2023-03-21T09:38:50.056Z,21.13
2023-03-21T09:39:52.202Z,21.24
2023-03-21T09:41:09.299Z,21.36
2023-03-21T09:42:37.934Z,21.35
2023-03-21T09:44:04.573Z,21.24
2023-03-21T09:45:39.166Z,21.42
2023-03-21T09:47:19.743Z,21.73
2023-03-21T09:48:56.653Z,21.78
2023-03-21T09:50:14.110Z,21.55
2023-03-21T09:51:19.370Z,21.86
2023-03-21T09:52:29.634Z,21.68
2023-03-21T09:53:41.437Z,21.98
2023-03-21T09:54:44.776Z,22.18
2023-03-21T09:55:47.227Z,21.45
2023-03-21T09:56:52.957Z,21.46
2023-03-21T09:58:14.465Z,21.27
2023-03-21T09:59:27.489Z,20.63
2023-03-21T10:00:36.443Z,20.91
2023-03-21T10:01:45.524Z,21.19
2023-03-21T10:02:56.897Z,21.11
2023-03-21T10:04:01.364Z,21.36
2023-03-21T10:05:21.517Z,21.21
2023-03-21T10:06:29.675Z,21.41
2023-03-21T10:07:38.991Z,21.44
2023-03-21T10:08:42.952Z,21.90
2023-03-21T10:09:47.131Z,22.22
2023-03-21T10:10:55.846Z,22.24
2023-03-21T10:12:03.235Z,22.51
2023-03-21T10:13:13.342Z,22.58
2023-03-21T10:14:27.064Z,22.55
2023-03-21T10:15:29.047Z,22.36
2023-03-21T10:16:56.901Z,21.53
2023-03-21T10:18:05.625Z,22.24
2023-03-21T10:19:13.868Z,22.60
2023-03-21T10:20:37.551Z,22.71
2023-03-21T10:22:03.452Z,22.65
2023-03-21T10:23:08.404Z,22.73
2023-03-21T10:24:13.869Z,23.11
2023-03-21T10:25:19.072Z,22.99
2023-03-21T10:26:23.546Z,23.16
2023-03-21T10:27:25.570Z,22.61
2023-03-21T10:28:42.401Z,22.79
2023-03-21T10:29:53.332Z,22.55
2023-03-21T10:31:08.081Z,22.73
2023-03-21T10:32:16.949Z,22.93
2023-03-21T10:33:24.361Z,23.09
2023-03-21T10:34:44.457Z,23.31
2023-03-21T10:35:51.464Z,22.87
2023-03-21T10:36:54.074Z,22.94
2023-03-21T10:37:55.921Z,23.28
2023-03-21T10:39:02.222Z,23.28
2023-03-21T10:40:06.796Z,23.24
2023-03-21T10:41:11.433Z,22.95
2023-03-21T10:42:33.867Z,23.04
2023-03-21T10:43:38.648Z,22.93
2023-03-21T10:44:46.972Z,22.76
2023-03-21T10:45:49.291Z,22.96
2023-03-21T10:46:52.907Z,23.33
2023-03-21T10:47:55.607Z,23.43
2023-03-21T10:48:57.754Z,23.42
2023-03-21T10:50:10.172Z,23.68
2023-03-21T10:51:19.069Z,23.72
2023-03-21T10:52:28.789Z,23.67
2023-03-21T10:53:36.340Z,23.66
2023-03-21T10:54:38.305Z,23.43
2023-03-21T10:55:42.040Z,23.72
2023-03-21T10:56:51.280Z,23.11
2023-03-21T10:57:58.775Z,22.99
2023-03-21T10:59:02.439Z,23.50
2023-03-21T11:00:15.938Z,23.78
2023-03-21T11:01:30.381Z,23.90
2023-03-21T11:02:37.810Z,23.69
2023-03-21T11:03:46.834Z,23.38
2023-03-21T11:04:49.041Z,23.42
2023-03-21T11:05:57.216Z,23.21
2023-03-21T11:07:04.083Z,23.46
2023-03-21T11:08:15.442Z,23.64
2023-03-21T11:09:19.748Z,23.69
2023-03-21T11:10:30.635Z,23.88
2023-03-21T11:11:39.967Z,23.67
2023-03-21T11:12:48.139Z,23.48
2023-03-21T11:13:59.015Z,23.65
2023-03-21T11:15:21.156Z,22.90
2023-03-21T11:16:30.003Z,23.27
2023-03-21T11:17:35.767Z,23.60
2023-03-21T11:18:43.379Z,23.63
2023-03-21T11:20:09.076Z,23.77
2023-03-21T11:21:13.461Z,23.66
2023-03-21T11:22:16.579Z,23.32
2023-03-21T11:23:20.921Z,23.06
2023-03-21T11:24:22.958Z,22.72
2023-03-21T11:25:38.101Z,22.87
2023-03-21T11:26:43.571Z,23.33
2023-03-21T11:27:51.697Z,23.56
2023-03-21T11:28:55.314Z,23.62
2023-03-21T11:30:01.643Z,23.73
2023-03-21T11:31:05.238Z,23.89
2023-03-21T11:32:13.882Z,23.72
2023-03-21T11:33:19.777Z,23.23
2023-03-21T11:34:30.602Z,23.50
2023-03-21T11:35:36.657Z,23.69
2023-03-21T11:36:39.219Z,23.76
2023-03-21T11:37:53.278Z,23.59
2023-03-21T11:39:02.711Z,23.33
2023-03-21T11:40:13.522Z,23.27
2023-03-21T11:41:29.387Z,23.06
2023-03-21T11:42:40.583Z,22.82
2023-03-21T11:43:52.612Z,22.80
2023-03-21T11:45:11.523Z,22.47
2023-03-21T11:46:14.922Z,23.03
2023-03-21T11:47:16.788Z,23.00
2023-03-21T11:48:18.731Z,23.30
2023-03-21T11:49:22.072Z,23.47
2023-03-21T11:50:33.793Z,23.44
2023-03-21T11:51:46.493Z,23.40
2023-03-21T11:53:04.979Z,23.42
2023-03-21T11:54:12.595Z,23.09
2023-03-21T11:55:33.007Z,22.94
2023-03-21T11:56:45.341Z,22.89
2023-03-21T11:58:23.009Z,23.27
2023-03-21T11:59:50.968Z,23.46
2023-03-21T12:01:26.626Z,23.46
2023-03-21T12:02:55.740Z,23.37
2023-03-21T12:04:18.656Z,23.36
2023-03-21T12:05:51.004Z,23.46
2023-03-21T12:06:55.348Z,23.62
2023-03-21T12:08:12.714Z,22.83
2023-03-21T12:09:27.277Z,22.93
2023-03-21T12:11:01.270Z,22.85
2023-03-21T12:12:39.674Z,22.94
2023-03-21T12:14:19.479Z,22.68
2023-03-21T12:15:33.295Z,21.60
2023-03-21T12:17:17.127Z,21.37
2023-03-21T12:18:32.646Z,21.24
2023-03-21T12:19:58.150Z,21.31
2023-03-21T12:21:28.435Z,21.16
2023-03-21T12:22:39.001Z,20.95
2023-03-21T12:23:55.875Z,20.80
2023-03-21T12:25:06.361Z,20.37
2023-03-21T12:26:10.608Z,20.17
2023-03-21T12:27:32.472Z,20.12
2023-03-21T12:29:02.265Z,20.12
2023-03-21T12:30:33.828Z,20.06
2023-03-21T12:32:06.588Z,20.17
2023-03-21T12:33:08.395Z,20.03
2023-03-21T12:34:37.254Z,19.63
2023-03-21T12:36:07.257Z,19.45
2023-03-21T12:37:32.074Z,19.67
2023-03-21T12:38:36.541Z,19.59
2023-03-21T12:39:43.778Z,19.34
2023-03-21T12:40:58.084Z,19.32
2023-03-21T12:42:18.586Z,19.42
2023-03-21T12:43:40.020Z,19.32
2023-03-21T12:45:11.544Z,19.08
2023-03-21T12:46:44.874Z,19.00
2023-03-21T12:47:56.354Z,19.23
2023-03-21T12:49:02.941Z,19.11
2023-03-21T12:50:27.526Z,19.08
2023-03-21T12:51:37.209Z,19.17
2023-03-21T12:52:42.309Z,19.02
2023-03-21T12:53:53.813Z,19.05
2023-03-21T12:55:21.653Z,19.15
2023-03-21T12:56:51.118Z,19.00
2023-03-21T12:58:02.034Z,19.07
2023-03-21T12:59:26.936Z,19.23
2023-03-21T13:00:40.897Z,19.24
2023-03-21T13:01:45.501Z,19.33
2023-03-21T13:02:50.644Z,19.27
2023-03-21T13:04:21.034Z,19.01
2023-03-21T13:05:38.268Z,18.52
2023-03-21T13:06:41.246Z,18.44
2023-03-21T13:07:48.757Z,18.32
2023-03-21T13:09:10.255Z,18.30
2023-03-21T13:10:21.291Z,18.32
2023-03-21T13:11:26.314Z,18.15
2023-03-21T13:12:57.387Z,18.08
2023-03-21T13:14:05.993Z,18.25
2023-03-21T13:15:30.419Z,18.55
2023-03-21T13:17:02.752Z,18.90
2023-03-21T13:18:23.206Z,19.36
2023-03-21T13:19:42.510Z,19.74
2023-03-21T13:20:50.676Z,20.03
2023-03-21T13:22:11.258Z,20.39
2023-03-21T13:23:13.983Z,20.18
2023-03-21T13:24:43.799Z,20.47
2023-03-21T13:25:49.135Z,20.20
2023-03-21T13:27:14.154Z,20.25
2023-03-21T13:28:21.716Z,20.31
2023-03-21T13:29:44.326Z,20.44
2023-03-21T13:30:48.774Z,20.56
2023-03-21T13:31:56.689Z,20.76
2023-03-21T13:33:08.302Z,21.04
2023-03-21T13:34:10.610Z,20.99
2023-03-21T13:35:17.353Z,21.27
2023-03-21T13:36:29.144Z,21.46
2023-03-21T13:37:35.234Z,21.37
2023-03-21T13:38:40.208Z,21.19
2023-03-21T13:39:47.154Z,21.14
2023-03-21T13:40:52.166Z,21.23
2023-03-21T13:41:54.742Z,20.94
2023-03-21T13:43:00.550Z,21.29
2023-03-21T13:44:02.350Z,21.36
2023-03-21T13:45:11.043Z,21.22
2023-03-21T13:46:54.883Z,21.49
2023-03-21T13:48:18.466Z,21.63
2023-03-21T13:49:33.204Z,21.34
2023-03-21T13:50:51.088Z,20.70
2023-03-21T13:51:56.788Z,20.36
2023-03-21T13:53:18.211Z,20.25
2023-03-21T13:54:35.021Z,20.34
2023-03-21T13:55:42.480Z,20.01
2023-03-21T13:56:47.266Z,19.66
2023-03-21T13:57:49.150Z,19.43
2023-03-21T13:58:54.765Z,19.61
2023-03-21T14:00:19.591Z,19.49
2023-03-21T14:01:30.583Z,19.36
2023-03-21T14:02:34.508Z,19.45
2023-03-21T14:03:36.425Z,19.55
2023-03-21T14:04:42.608Z,19.66
2023-03-21T14:05:50.752Z,19.67
2023-03-21T14:07:12.097Z,19.82
2023-03-21T14:08:27.748Z,20.15
2023-03-21T14:09:44.300Z,20.34
2023-03-21T14:10:49.264Z,20.44
2023-03-21T14:11:54.729Z,20.58
2023-03-21T14:12:59.570Z,20.65
2023-03-21T14:14:03.423Z,20.71
2023-03-21T14:15:18.336Z,20.78
2023-03-21T14:16:22.097Z,21.05
2023-03-21T14:17:26.841Z,21.13
2023-03-21T14:18:52.420Z,20.76
2023-03-21T14:19:56.061Z,20.84
2023-03-21T14:21:01.315Z,20.64
2023-03-21T14:22:05.187Z,20.75
2023-03-21T14:23:13.166Z,20.67
2023-03-21T14:24:17.362Z,20.61
2023-03-21T14:25:23.166Z,20.12
2023-03-21T14:26:27.442Z,20.20
2023-03-21T14:27:32.813Z,20.22
2023-03-21T14:28:36.192Z,20.14
2023-03-21T14:29:39.611Z,20.05
2023-03-21T14:30:43.005Z,19.89
2023-03-21T14:31:47.344Z,19.91
2023-03-21T14:32:49.310Z,20.02
2023-03-21T14:33:54.165Z,20.19
2023-03-21T14:34:59.523Z,20.30
2023-03-21T14:36:08.901Z,20.30
2023-03-21T14:37:11.540Z,20.24
2023-03-21T14:38:41.618Z,20.15
2023-03-21T14:39:43.583Z,20.26
2023-03-21T14:40:52.197Z,20.27
2023-03-21T14:41:56.730Z,20.34
2023-03-21T14:43:05.682Z,20.13
2023-03-21T14:44:25.795Z,20.26
2023-03-21T14:45:30.653Z,20.17
2023-03-21T14:46:33.756Z,20.17
2023-03-21T14:47:37.309Z,20.00
2023-03-21T14:48:39.307Z,19.78